PAIL

Iliamna Airport

Iliamna, Alaska, USA
PAIL 202324Z 2100/2124 12006KT P6SM VCSH SCT070 BKN100 FM211800 11014G22KT P6SM -SHRA BKN040 OVC060
Issued Valid From Valid To
Apr-20 @ 23:24 UTC
(5 hours ago)
Apr-21 @ 00:00 UTC
(4 hours ago)
Apr-22 @ 00:00 UTC
(in 20 hours)
Apr-21 @ 00:00 to Apr-21 @ 18:00
PAIL 202324Z 2100/2124 12006KT P6SM VCSH SCT070 BKN100
Wind Visibility Clouds
120° at 6 knots Greater than 6 miles
  • Scattered at 7,000' AGL
  • Broken at 10,000' AGL
From Apr-21 @ 18:00 to Apr-22 @ 00:00
FM211800 11014G22KT P6SM -SHRA BKN040 OVC060
Wind Visibility Clouds Conditions
110° at 14 knots
 Gusting to 22 knots
Greater than 6 miles
  • Broken at 4,000' AGL
  • Overcast at 6,000' AGL
  • Light Rain
PAIL 202324Z 2100/2124 12006KT P6SM VCSH SCT070 BKN100 FM211800 11014G22KT P6SM -SHRA BKN040 OVC060
Issued Apr-20 @ 23:24 UTC
(5 hours ago)
Valid From Apr-21 @ 00:00 UTC
(4 hours ago)
Valid To Apr-22 @ 00:00 UTC
(in 20 hours)
Apr-21 @ 00:00 - Apr-21 @ 18:00
Wind Visibility
120° at 6 knots Greater than 6 miles
Clouds
  • Scattered at 7,000' AGL
  • Broken at 10,000' AGL
From Apr-21 @ 18:00 - Apr-22 @ 00:00
Wind Visibility
110° at 14 knots
 Gusting to 22 knots
Greater than 6 miles
Clouds
  • Broken at 4,000' AGL
  • Overcast at 6,000' AGL
Conditions
  • Light Rain